Time;durP1;ratioP1;P1;durP2;ratioP2;P2;SDS_P1;SDS_P2;PMS_P1;PMS_P2;Temp;Humidity;BMP_temperature;BMP_pressure;BME280_temperature;BME280_humidity;BME280_pressure;Samples;Min_cycle;Max_cycle;Signal;HPM_P1;HPM_P2
2021/09/05 00:01:17;;;;;;;15.70;7.50;;;;;;;11.84;56.59;100535.91;1785287;79;21455;-62
2021/09/05 00:03:44;;;;;;;13.75;6.70;;;;;;;11.83;56.59;100537.75;1788626;79;20968;-62
2021/09/05 00:06:10;;;;;;;17.77;8.18;;;;;;;11.82;56.66;100534.80;1788507;79;20895;-60
2021/09/05 00:08:37;;;;;;;15.13;7.80;;;;;;;11.81;56.99;100535.02;1787150;79;21471;-61
2021/09/05 00:11:06;;;;;;;12.03;6.75;;;;;;;11.81;57.32;100540.39;1783116;79;21019;-61
2021/09/05 00:13:33;;;;;;;14.68;7.28;;;;;;;11.80;57.60;100545.45;1783182;78;21503;-63
2021/09/05 00:15:59;;;;;;;18.37;8.73;;;;;;;11.80;58.12;100546.80;1785530;79;21019;-60
2021/09/05 00:18:28;;;;;;;20.82;8.10;;;;;;;11.80;58.18;100548.14;1785516;79;20940;-61
2021/09/05 00:20:54;;;;;;;17.52;7.70;;;;;;;11.80;58.17;100555.66;1783019;79;21051;-61
2021/09/05 00:23:21;;;;;;;15.98;8.15;;;;;;;11.81;58.25;100558.66;1798803;78;21138;-61
2021/09/05 00:25:47;;;;;;;19.40;7.55;;;;;;;11.84;57.97;100556.06;1801479;78;20992;-62
2021/09/05 00:28:13;;;;;;;12.28;6.53;;;;;;;11.83;57.87;100561.94;1802167;78;21011;-60
2021/09/05 00:30:40;;;;;;;14.03;6.83;;;;;;;11.79;57.89;100558.57;1804176;78;20939;-61
2021/09/05 00:33:07;;;;;;;12.75;7.47;;;;;;;11.74;58.01;100557.89;1803937;78;21544;-60
2021/09/05 00:35:35;;;;;;;13.08;6.40;;;;;;;11.79;58.02;100561.26;1803292;78;21188;-60
2021/09/05 00:38:02;;;;;;;16.52;7.20;;;;;;;11.84;57.89;100558.21;1803698;78;20877;-60
2021/09/05 00:40:30;;;;;;;11.90;6.15;;;;;;;11.91;57.81;100564.34;1798795;78;20983;-60
2021/09/05 00:42:57;;;;;;;11.63;6.12;;;;;;;11.98;57.38;100567.51;1800275;78;20983;-61
2021/09/05 00:45:23;;;;;;;9.80;5.85;;;;;;;12.00;56.95;100569.44;1800721;78;21006;-61
2021/09/05 00:47:50;;;;;;;12.15;5.95;;;;;;;12.00;56.61;100570.28;1801303;78;21127;-61
2021/09/05 00:50:17;;;;;;;11.68;6.55;;;;;;;12.04;56.17;100559.89;1802293;78;21462;-63
2021/09/05 00:52:45;;;;;;;11.57;5.92;;;;;;;12.04;55.87;100567.95;1800640;78;21035;-60
2021/09/05 00:55:11;;;;;;;14.23;6.03;;;;;;;11.97;56.06;100570.73;1803481;78;20945;-60
2021/09/05 00:57:43;;;;;;;12.18;6.03;;;;;;;11.94;55.74;100573.02;1801419;78;20994;-60
2021/09/05 01:00:10;;;;;;;11.85;5.78;;;;;;;11.87;55.71;100575.22;1803948;78;21849;-60
2021/09/05 01:02:38;;;;;;;16.40;6.15;;;;;;;11.86;55.76;100576.80;1801905;78;20972;-60
2021/09/05 01:05:07;;;;;;;12.27;4.90;;;;;;;11.88;55.70;100577.38;1803209;78;20920;-60
2021/09/05 01:07:35;;;;;;;10.00;5.37;;;;;;;11.91;55.44;100571.06;1801362;77;21006;-60
2021/09/05 01:10:04;;;;;;;12.18;5.78;;;;;;;11.94;55.30;100580.58;1798728;78;21525;-60
2021/09/05 01:12:32;;;;;;;14.53;6.42;;;;;;;11.94;55.18;100575.70;1782063;78;21162;-61
2021/09/05 01:14:59;;;;;;;10.25;5.62;;;;;;;11.85;55.34;100575.14;1803047;78;20861;-60
2021/09/05 01:17:25;;;;;;;10.38;4.95;;;;;;;11.75;55.48;100576.47;1804945;78;20991;-61
2021/09/05 01:19:52;;;;;;;12.53;5.67;;;;;;;11.70;55.66;100574.98;1800233;78;20884;-61
2021/09/05 01:22:23;;;;;;;10.15;5.90;;;;;;;11.68;55.78;100581.08;1796826;78;20905;-61
2021/09/05 01:25:09;;;;;;;12.70;6.08;;;;;;;11.72;55.83;100580.13;1802001;78;21080;-61
2021/09/05 01:27:41;;;;;;;11.25;5.28;;;;;;;11.77;55.80;100587.00;1753016;78;20892;-61
2021/09/05 01:30:16;;;;;;;12.50;5.47;;;;;;;11.81;55.82;100590.89;1778175;78;20989;-60
2021/09/05 01:33:01;;;;;;;10.70;5.70;;;;;;;11.86;55.76;100595.59;1804800;78;21556;-61
2021/09/05 01:35:46;;;;;;;10.53;5.67;;;;;;;11.90;55.73;100594.92;1802728;78;20915;-60
2021/09/05 01:38:23;;;;;;;10.03;6.15;;;;;;;11.95;55.81;100597.51;1800236;78;21110;-61
2021/09/05 01:41:08;;;;;;;13.10;6.47;;;;;;;11.98;55.86;100594.38;1802625;78;20837;-59
2021/09/05 01:44:06;;;;;;;11.65;6.28;;;;;;;12.00;55.92;100605.21;1805557;78;20916;-60
2021/09/05 01:46:40;;;;;;;14.87;7.08;;;;;;;12.01;55.95;100610.86;1759116;78;20892;-61
2021/09/05 01:51:47;;;;;;;17.07;7.15;;;;;;;11.97;55.96;100619.09;1824263;78;22594;-61
2021/09/05 01:54:15;;;;;;;18.98;9.15;;;;;;;11.87;56.11;100619.55;1764349;79;21062;-61
2021/09/05 01:57:00;;;;;;;15.88;9.50;;;;;;;11.83;56.30;100624.24;1762629;80;21195;-61
2021/09/05 01:59:29;;;;;;;18.50;8.70;;;;;;;11.75;56.45;100633.41;1762189;80;21006;-61
2021/09/05 02:02:14;;;;;;;21.68;7.62;;;;;;;11.68;56.60;100630.76;1764682;80;20892;-61
2021/09/05 02:04:51;;;;;;;14.78;7.65;;;;;;;11.62;56.91;100632.17;1741665;82;20980;-61
2021/09/05 02:07:33;;;;;;;17.17;8.13;;;;;;;11.56;56.97;100629.30;1766068;80;21405;-61
2021/09/05 02:10:09;;;;;;;14.33;7.80;;;;;;;11.51;57.17;100637.70;1755246;80;21175;-60
2021/09/05 02:12:51;;;;;;;13.65;7.67;;;;;;;11.46;57.33;100632.99;1746594;82;20994;-61
2021/09/05 02:15:25;;;;;;;16.05;6.75;;;;;;;11.42;57.54;100637.67;1765486;80;21487;-61
2021/09/05 02:18:10;;;;;;;13.72;6.47;;;;;;;11.39;57.64;100632.22;1748938;82;20971;-61
2021/09/05 02:20:40;;;;;;;11.18;5.60;;;;;;;11.34;57.82;100629.38;1768229;80;20971;-60
2021/09/05 02:23:08;;;;;;;10.08;5.80;;;;;;;11.38;57.99;100637.27;1746591;82;21113;-61
2021/09/05 02:25:49;;;;;;;9.93;5.60;;;;;;;11.43;58.05;100636.64;1761972;80;20986;-61
2021/09/05 02:28:35;;;;;;;15.28;6.45;;;;;;;11.46;57.69;100632.99;1748964;82;20908;-60
2021/09/05 02:31:04;;;;;;;9.28;5.28;;;;;;;11.50;57.80;100640.11;1760737;80;20947;-61
2021/09/05 02:33:32;;;;;;;11.40;5.85;;;;;;;11.53;57.22;100636.98;1763204;80;20991;-60
2021/09/05 02:36:04;;;;;;;12.43;6.25;;;;;;;11.50;57.39;100640.92;1691980;80;21161;-60
2021/09/05 02:38:48;;;;;;;12.33;6.67;;;;;;;11.52;57.37;100641.52;1700036;82;20980;-61
2021/09/05 02:41:16;;;;;;;14.28;5.53;;;;;;;11.60;57.39;100644.47;1766023;80;21000;-61
2021/09/05 02:43:51;;;;;;;11.93;6.10;;;;;;;11.68;57.20;100644.72;1761985;80;20943;-61
2021/09/05 02:46:32;;;;;;;12.98;6.45;;;;;;;11.75;57.00;100653.55;1698941;82;21038;-61
2021/09/05 02:49:03;;;;;;;18.37;7.60;;;;;;;11.78;56.85;100652.27;1762570;80;21155;-61
2021/09/05 02:51:48;;;;;;;15.50;7.90;;;;;;;11.80;56.98;100651.55;1756166;80;20873;-61
2021/09/05 02:54:33;;;;;;;12.05;6.45;;;;;;;11.80;56.82;100656.39;1757071;81;20941;-61
2021/09/05 02:57:08;;;;;;;13.03;5.92;;;;;;;11.81;56.77;100660.72;1746310;81;20893;-61
2021/09/05 02:59:48;;;;;;;16.37;6.10;;;;;;;11.79;56.65;100661.45;1754576;81;20873;-62
2021/09/05 03:02:16;;;;;;;9.93;5.67;;;;;;;11.77;56.49;100663.55;1750752;81;21089;-61
2021/09/05 03:04:48;;;;;;;12.80;6.30;;;;;;;11.74;56.62;100662.64;1722638;80;20932;-60
2021/09/05 03:07:17;;;;;;;10.05;5.85;;;;;;;11.72;56.65;100665.55;1752867;81;20981;-60
2021/09/05 03:09:45;;;;;;;14.87;7.62;;;;;;;11.70;56.50;100668.14;1751979;80;20929;-60
2021/09/05 03:12:23;;;;;;;13.45;6.17;;;;;;;11.71;56.48;100672.48;1753834;81;20960;-60
2021/09/05 03:14:58;;;;;;;15.25;7.42;;;;;;;11.71;56.54;100676.50;1752922;81;21836;-61
2021/09/05 03:17:27;;;;;;;16.15;8.13;;;;;;;11.66;56.82;100679.85;1754538;81;20979;-61
2021/09/05 03:19:56;;;;;;;18.77;7.50;;;;;;;11.63;56.88;100684.81;1752062;81;20933;-61
2021/09/05 03:22:26;;;;;;;10.95;7.05;;;;;;;11.57;56.96;100680.63;1747584;81;22087;-62
2021/09/05 03:25:08;;;;;;;13.43;7.55;;;;;;;11.52;56.68;100685.00;1753931;81;20980;-61
2021/09/05 03:27:48;;;;;;;10.78;5.83;;;;;;;11.44;56.82;100684.75;1753079;80;21141;-61
2021/09/05 03:30:36;;;;;;;13.08;6.42;;;;;;;11.40;57.24;100682.19;1747533;80;20897;-62
2021/09/05 03:33:08;;;;;;;14.93;7.05;;;;;;;11.40;57.48;100689.70;1750547;80;20984;-61
2021/09/05 03:35:37;;;;;;;23.22;13.68;;;;;;;11.44;57.46;100691.45;1724882;81;20961;-61
2021/09/05 03:38:11;;;;;;;15.35;7.28;;;;;;;11.48;57.60;100699.89;1751269;81;21546;-61
2021/09/05 03:40:42;;;;;;;10.68;5.65;;;;;;;11.52;57.67;100701.11;1750389;79;21228;-60
2021/09/05 03:43:20;;;;;;;11.93;6.03;;;;;;;11.55;57.49;100701.48;1751310;81;21012;-61
2021/09/05 03:45:54;;;;;;;12.68;6.78;;;;;;;11.61;57.41;100698.98;1745448;81;20932;-61
2021/09/05 03:48:32;;;;;;;10.70;5.97;;;;;;;11.64;57.37;100702.05;1753387;80;20937;-61
2021/09/05 03:51:04;;;;;;;11.33;6.50;;;;;;;11.68;57.26;100708.64;1752917;80;21489;-61
2021/09/05 03:53:33;;;;;;;13.75;7.00;;;;;;;11.70;57.21;100711.95;1750185;81;22354;-61
2021/09/05 03:56:00;;;;;;;13.70;7.53;;;;;;;11.74;57.20;100717.70;1753240;81;21027;-61
2021/09/05 03:58:29;;;;;;;14.13;7.60;;;;;;;11.80;56.99;100718.16;1756649;80;20973;-61
2021/09/05 04:00:55;;;;;;;12.70;6.15;;;;;;;11.85;56.92;100721.03;1753236;81;21019;-61
2021/09/05 04:03:24;;;;;;;11.30;6.55;;;;;;;11.89;56.82;100722.22;1747772;80;21061;-61
2021/09/05 04:05:51;;;;;;;7.97;4.72;;;;;;;11.92;56.73;100717.78;1751878;81;21096;-62
2021/09/05 04:08:18;;;;;;;12.28;6.20;;;;;;;11.96;56.55;100718.19;1751866;81;20933;-61
2021/09/05 04:10:44;;;;;;;10.72;5.87;;;;;;;11.98;56.50;100717.44;1758614;81;21040;-61
2021/09/05 04:13:11;;;;;;;9.78;5.67;;;;;;;12.05;56.46;100720.89;1752080;81;20937;-61
2021/09/05 04:15:41;;;;;;;11.10;5.55;;;;;;;12.23;56.19;100723.34;1751615;80;20936;-61
2021/09/05 04:18:09;;;;;;;9.00;5.22;;;;;;;12.38;55.85;100721.14;1751446;81;21132;-61
2021/09/05 04:20:37;;;;;;;11.53;6.00;;;;;;;12.74;55.56;100722.75;1753027;81;20937;-60
2021/09/05 04:23:05;;;;;;;12.37;5.60;;;;;;;13.88;54.07;100720.73;1751967;81;20933;-63
2021/09/05 04:25:33;;;;;;;10.87;5.37;;;;;;;15.52;50.65;100719.44;1756500;81;21032;-61
2021/09/05 04:27:59;;;;;;;9.65;5.72;;;;;;;17.24;46.73;100720.35;1753020;81;21019;-61
2021/09/05 04:30:26;;;;;;;10.70;5.62;;;;;;;18.85;43.18;100723.53;1749805;81;21073;-61
2021/09/05 04:32:52;;;;;;;7.62;4.92;;;;;;;20.29;39.75;100721.65;1752614;81;20960;-62
2021/09/05 04:35:19;;;;;;;7.80;4.65;;;;;;;21.53;36.55;100722.81;1753502;81;21003;-60
2021/09/05 04:37:46;;;;;;;10.03;7.00;;;;;;;22.54;34.78;100723.33;1751734;81;21546;-61
2021/09/05 04:40:13;;;;;;;9.73;6.00;;;;;;;23.46;32.95;100725.48;1753398;80;20995;-61
2021/09/05 04:42:40;;;;;;;9.23;4.87;;;;;;;24.38;31.16;100723.17;1754726;81;23300;-61
2021/09/05 04:45:08;;;;;;;6.22;4.53;;;;;;;25.26;29.91;100729.63;1753384;81;20877;-61
2021/09/05 04:47:34;;;;;;;8.28;4.62;;;;;;;26.04;28.25;100730.84;1756882;81;20905;-61
2021/09/05 04:50:04;;;;;;;7.75;5.03;;;;;;;26.64;27.45;100730.89;1753357;80;21538;-62
2021/09/05 04:52:30;;;;;;;8.50;5.12;;;;;;;27.16;26.55;100730.81;1750683;81;21695;-61
2021/09/05 04:54:57;;;;;;;7.28;5.10;;;;;;;27.64;26.06;100731.84;1751159;81;21149;-61
2021/09/05 04:57:23;;;;;;;8.18;5.05;;;;;;;28.07;25.04;100734.53;1754042;81;21482;-61
2021/09/05 04:59:50;;;;;;;6.90;5.00;;;;;;;28.18;24.99;100738.32;1753068;81;20949;-62
2021/09/05 05:02:16;;;;;;;7.30;4.90;;;;;;;28.43;24.76;100744.88;1751875;81;21558;-60
2021/09/05 05:04:43;;;;;;;8.33;4.85;;;;;;;28.84;24.38;100744.25;1750582;81;20999;-62
2021/09/05 05:07:11;;;;;;;11.35;5.00;;;;;;;29.30;23.61;100746.40;1752780;80;21036;-60
2021/09/05 05:09:43;;;;;;;5.53;4.08;;;;;;;29.74;23.14;100752.95;1753171;81;20916;-62
2021/09/05 05:12:07;;;;;;;10.78;5.47;;;;;;;30.17;22.68;100749.78;1749425;81;20987;-62
2021/09/05 05:14:35;;;;;;;7.45;4.87;;;;;;;30.56;22.21;100753.66;1753052;81;21004;-61
2021/09/05 05:17:02;;;;;;;7.70;4.35;;;;;;;30.86;21.80;100749.27;1751879;81;20960;-62
2021/09/05 05:19:29;;;;;;;6.90;3.98;;;;;;;31.14;21.39;100745.80;1753292;81;21150;-62
2021/09/05 05:21:57;;;;;;;8.08;5.08;;;;;;;31.25;21.26;100749.13;1751861;81;20968;-61
2021/09/05 05:24:23;;;;;;;5.40;4.12;;;;;;;31.35;21.10;100755.34;1754878;81;20991;-62
2021/09/05 05:26:50;;;;;;;6.17;3.85;;;;;;;31.64;20.90;100752.03;1751794;80;21019;-62
2021/09/05 05:29:16;;;;;;;5.75;3.83;;;;;;;31.97;20.17;100753.95;1753377;81;20866;-62
2021/09/05 05:31:44;;;;;;;5.33;3.67;;;;;;;32.14;19.94;100755.63;1752981;81;21164;-61
2021/09/05 05:34:11;;;;;;;3.40;3.02;;;;;;;32.26;19.53;100749.20;1752657;81;20932;-62
2021/09/05 05:36:38;;;;;;;5.33;3.98;;;;;;;32.18;19.50;100752.14;1757493;81;20957;-62
2021/09/05 05:39:04;;;;;;;4.77;3.37;;;;;;;32.04;19.66;100755.30;1752814;81;20963;-62
2021/09/05 05:41:31;;;;;;;4.03;3.00;;;;;;;32.18;19.42;100761.84;1753473;81;21000;-64
2021/09/05 05:43:58;;;;;;;3.98;3.22;;;;;;;32.25;19.21;100756.48;1751866;81;21814;-62
2021/09/05 05:46:24;;;;;;;6.87;3.30;;;;;;;32.40;18.62;100756.27;1751605;80;20996;-62
2021/09/05 05:48:52;;;;;;;6.53;3.98;;;;;;;32.42;18.83;100756.14;1751506;81;21474;-62
2021/09/05 05:51:19;;;;;;;5.90;3.75;;;;;;;32.99;18.60;100769.19;1756101;80;20900;-63
2021/09/05 05:53:46;;;;;;;4.95;3.72;;;;;;;32.99;18.60;100769.19;1772501;80;21039;-63
2021/09/05 05:56:12;;;;;;;5.37;3.80;;;;;;;33.25;18.22;100773.38;1772642;80;21148;-61
2021/09/05 05:58:39;;;;;;;4.67;3.87;;;;;;;33.37;18.16;100774.42;1772383;80;20908;-62
2021/09/05 06:01:05;;;;;;;4.40;3.33;;;;;;;33.58;17.98;100783.78;1772673;80;20979;-63
2021/09/05 06:03:36;;;;;;;4.12;2.95;;;;;;;33.56;17.47;100780.58;1772170;80;20948;-62
2021/09/05 06:06:03;;;;;;;3.35;2.60;;;;;;;32.84;17.75;100788.88;1770313;80;21037;-62
2021/09/05 06:08:30;;;;;;;5.47;2.80;;;;;;;32.84;17.75;100788.88;1770101;80;21923;-62
2021/09/05 06:10:58;;;;;;;3.47;2.35;;;;;;;32.47;18.49;100786.37;1772685;80;20848;-62
2021/09/05 06:13:26;;;;;;;3.77;1.82;;;;;;;32.46;17.64;100786.13;1773099;80;20964;-62
2021/09/05 06:15:53;;;;;;;3.30;2.47;;;;;;;31.90;18.16;100788.39;1772797;80;21510;-63
2021/09/05 06:18:19;;;;;;;3.77;2.23;;;;;;;31.53;18.82;100787.13;1769930;80;21030;-63
2021/09/05 06:20:46;;;;;;;5.70;2.08;;;;;;;31.73;19.03;100792.85;1771115;80;21110;-62
2021/09/05 06:23:12;;;;;;;4.70;1.97;;;;;;;32.13;18.62;100791.44;1771523;80;20987;-62
2021/09/05 06:25:39;;;;;;;3.27;1.90;;;;;;;32.45;18.76;100792.87;1770538;80;21713;-62
2021/09/05 06:28:06;;;;;;;4.25;2.00;;;;;;;32.89;17.51;100795.33;1771294;79;21438;-62
2021/09/05 06:30:32;;;;;;;4.40;2.20;;;;;;;33.06;17.26;100791.38;1771259;80;21102;-63
2021/09/05 06:32:59;;;;;;;1.92;1.40;;;;;;;33.25;17.15;100801.16;1774545;80;21149;-63
2021/09/05 06:35:26;;;;;;;3.62;2.00;;;;;;;33.35;16.69;100801.97;1771961;80;20936;-62
2021/09/05 06:37:53;;;;;;;4.72;2.17;;;;;;;33.27;16.77;100804.36;1769217;80;20971;-61
2021/09/05 06:40:21;;;;;;;2.43;1.60;;;;;;;33.28;16.84;100804.59;1772128;80;21532;-64
2021/09/05 06:42:47;;;;;;;2.72;1.70;;;;;;;33.39;16.68;100808.19;1770940;79;20939;-64
2021/09/05 06:45:13;;;;;;;4.78;1.65;;;;;;;33.67;16.75;100819.09;1773878;80;21128;-61
2021/09/05 06:47:40;;;;;;;2.27;1.63;;;;;;;33.89;15.67;100814.80;1771352;80;21516;-63
2021/09/05 06:50:11;;;;;;;1.10;1.00;;;;;;;33.65;16.35;100813.11;1772497;80;20893;-62
2021/09/05 06:52:37;;;;;;;2.00;1.12;;;;;;;33.53;15.94;100817.63;1772546;80;20971;-62
2021/09/05 06:55:07;;;;;;;1.62;1.22;;;;;;;33.38;16.29;100822.67;1772874;80;27297;-62
2021/09/05 06:57:34;;;;;;;2.02;1.50;;;;;;;33.42;16.47;100824.13;1771054;80;21553;-62
2021/09/05 07:00:01;;;;;;;2.50;1.37;;;;;;;33.56;16.29;100829.20;1770970;80;21010;-63
2021/09/05 07:02:27;;;;;;;2.95;1.30;;;;;;;33.59;15.96;100833.43;1772516;80;21529;-63
2021/09/05 07:04:54;;;;;;;2.03;1.13;;;;;;;33.41;16.55;100833.05;1772916;80;20924;-63
2021/09/05 07:07:20;;;;;;;3.65;1.25;;;;;;;33.40;16.10;100835.59;1771894;80;21066;-62
2021/09/05 07:09:47;;;;;;;1.92;1.20;;;;;;;33.27;15.93;100834.91;1772620;80;21758;-61
2021/09/05 07:12:13;;;;;;;2.17;1.60;;;;;;;32.87;15.78;100829.59;1772931;80;20896;-62
2021/09/05 07:14:40;;;;;;;2.77;2.00;;;;;;;31.94;16.61;100835.03;1777573;80;20978;-61
2021/09/05 07:17:07;;;;;;;4.55;1.72;;;;;;;31.38;17.59;100846.03;1770806;80;21030;-62
2021/09/05 07:19:33;;;;;;;2.30;1.60;;;;;;;31.04;18.44;100842.59;1771837;80;20974;-61
2021/09/05 07:22:00;;;;;;;2.10;1.50;;;;;;;30.76;18.69;100847.39;1772688;80;21910;-61
2021/09/05 07:24:27;;;;;;;1.77;1.40;;;;;;;30.26;19.00;100846.44;1771646;80;20880;-60
2021/09/05 07:26:54;;;;;;;3.45;2.17;;;;;;;29.40;19.49;100848.72;1771423;80;20952;-61
2021/09/05 07:29:20;;;;;;;3.25;1.82;;;;;;;28.52;20.25;100853.20;1773049;80;21026;-61
2021/09/05 07:31:47;;;;;;;3.85;1.75;;;;;;;27.70;20.87;100852.48;1770048;79;21395;-61
2021/09/05 07:34:13;;;;;;;3.02;1.80;;;;;;;26.88;21.24;100858.41;1771942;80;21080;-62
2021/09/05 07:36:41;;;;;;;2.67;1.77;;;;;;;26.18;22.16;100855.20;1773642;80;20986;-61
2021/09/05 07:39:09;;;;;;;2.45;1.90;;;;;;;25.62;23.11;100856.48;1772729;80;20896;-61
2021/09/05 07:41:36;;;;;;;2.70;2.10;;;;;;;25.11;24.02;100861.05;1771682;80;20932;-62
2021/09/05 07:44:04;;;;;;;3.33;1.70;;;;;;;24.69;24.32;100871.14;1774093;80;21568;-60
2021/09/05 07:46:30;;;;;;;3.87;1.60;;;;;;;24.22;25.06;100866.95;1772014;79;21803;-60
2021/09/05 07:48:57;;;;;;;1.67;1.40;;;;;;;23.80;25.09;100862.05;1770522;80;20912;-61
2021/09/05 07:51:24;;;;;;;3.50;1.95;;;;;;;23.37;25.78;100871.66;1770430;80;21012;-62
2021/09/05 07:53:52;;;;;;;3.42;1.75;;;;;;;22.97;26.26;100861.42;1754980;81;21055;-63
2021/09/05 07:56:20;;;;;;;2.85;1.42;;;;;;;22.67;27.03;100870.20;1754287;81;20941;-61
2021/09/05 07:58:47;;;;;;;2.50;1.80;;;;;;;22.48;27.14;100867.89;1751606;81;21120;-63
2021/09/05 08:01:15;;;;;;;2.27;1.42;;;;;;;22.32;27.58;100868.03;1751559;80;20992;-62
2021/09/05 08:03:41;;;;;;;2.00;1.43;;;;;;;22.17;28.29;100868.09;1752021;81;20929;-63
2021/09/05 08:06:08;;;;;;;2.40;1.70;;;;;;;22.10;28.74;100871.16;1754695;81;21007;-63
2021/09/05 08:08:37;;;;;;;2.17;1.50;;;;;;;22.09;28.40;100874.98;1750713;80;20980;-62
2021/09/05 08:11:05;;;;;;;4.70;1.65;;;;;;;22.07;28.65;100877.72;1752605;81;21144;-61
2021/09/05 08:13:32;;;;;;;4.85;1.70;;;;;;;22.02;28.22;100879.38;1754500;81;21004;-64
2021/09/05 08:16:03;;;;;;;2.92;1.77;;;;;;;21.83;28.32;100874.31;1752177;81;21162;-60
2021/09/05 08:18:33;;;;;;;2.77;1.05;;;;;;;21.54;28.70;100872.30;1753311;81;20996;-62
2021/09/05 08:20:59;;;;;;;2.22;1.27;;;;;;;21.38;29.39;100873.39;1754623;81;20948;-61
2021/09/05 08:23:26;;;;;;;2.65;1.60;;;;;;;21.25;29.53;100872.09;1753153;81;21113;-61
2021/09/05 08:25:53;;;;;;;2.55;1.30;;;;;;;21.09;29.44;100873.48;1753145;81;20940;-61
2021/09/05 08:28:19;;;;;;;2.02;1.30;;;;;;;20.98;29.65;100870.54;1753086;81;21544;-61
2021/09/05 08:30:47;;;;;;;3.70;1.37;;;;;;;20.93;30.10;100875.98;1751988;81;20957;-63
2021/09/05 08:33:16;;;;;;;3.05;1.47;;;;;;;20.87;30.28;100881.17;1754101;81;21431;-63
2021/09/05 08:35:44;;;;;;;1.32;1.20;;;;;;;20.82;30.13;100873.83;1753216;81;21141;-62
2021/09/05 08:38:11;;;;;;;3.27;1.22;;;;;;;20.83;30.79;100883.09;1751016;81;20956;-61
2021/09/05 08:40:42;;;;;;;2.20;1.30;;;;;;;20.90;30.63;100882.79;1751803;80;20953;-62
2021/09/05 08:43:09;;;;;;;1.45;1.10;;;;;;;20.94;30.42;100878.98;1753767;81;20900;-61
2021/09/05 08:45:36;;;;;;;1.55;1.00;;;;;;;20.81;29.21;100876.27;1739514;81;20912;-62
2021/09/05 08:50:40;;;;;;;4.78;1.27;;;;;;;20.29;30.41;100883.05;1688499;84;20994;-62
2021/09/05 08:53:07;;;;;;;1.57;1.05;;;;;;;20.18;30.27;100880.04;1662586;85;21061;-62
2021/09/05 08:55:33;;;;;;;1.57;0.95;;;;;;;20.09;31.63;100878.94;1666015;85;20942;-61
2021/09/05 08:58:01;;;;;;;4.25;0.80;;;;;;;20.10;30.96;100880.03;1665338;85;21026;-62
2021/09/05 09:00:27;;;;;;;2.80;0.65;;;;;;;20.10;29.66;100880.03;1664487;85;21734;-62
2021/09/05 09:02:56;;;;;;;1.50;0.75;;;;;;;20.01;28.54;100872.66;1663218;85;20898;-63
2021/09/05 09:05:37;;;;;;;4.30;0.50;;;;;;;19.88;28.41;100880.26;1666386;85;21095;-61
2021/09/05 09:08:11;;;;;;;0.78;0.47;;;;;;;19.81;28.08;100878.33;1668976;85;21001;-61
2021/09/05 09:11:01;;;;;;;1.10;0.75;;;;;;;19.69;29.07;100877.17;1664475;85;21044;-61
2021/09/05 09:13:35;;;;;;;1.65;1.02;;;;;;;19.78;29.61;100881.59;1667851;85;21250;-61
2021/09/05 09:16:13;;;;;;;1.00;0.70;;;;;;;19.80;28.34;100878.05;1663118;85;20919;-61
2021/09/05 09:18:42;;;;;;;1.40;0.98;;;;;;;19.60;27.87;100885.58;1665286;85;21087;-65
2021/09/05 09:21:11;;;;;;;3.62;0.80;;;;;;;19.35;27.89;100880.30;1665856;85;20951;-62
2021/09/05 09:23:38;;;;;;;;;;;;;;;19.18;28.02;100879.66;1691734;84;20982;-60
2021/09/05 09:26:09;;;;;;;1.67;0.90;;;;;;;19.21;27.88;100874.53;1691376;84;21148;-61
2021/09/05 09:28:48;;;;;;;2.12;1.20;;;;;;;19.34;28.12;100884.09;1687564;84;21083;-62
2021/09/05 09:31:24;;;;;;;1.55;0.98;;;;;;;19.48;28.46;100884.45;1691416;84;20880;-63
2021/09/05 09:33:54;;;;;;;0.88;0.70;;;;;;;19.60;28.64;100880.14;1688554;84;20952;-61
2021/09/05 09:36:27;;;;;;;1.62;1.07;;;;;;;19.52;28.16;100883.36;1689011;84;20955;-62
2021/09/05 09:39:00;;;;;;;1.50;0.70;;;;;;;19.34;28.52;100886.81;1688001;84;21074;-61
2021/09/05 09:41:30;;;;;;;3.90;0.85;;;;;;;19.33;28.74;100889.28;1664040;85;21574;-61
2021/09/05 09:44:02;;;;;;;3.35;1.10;;;;;;;19.32;28.62;100884.10;1686748;84;21090;-62
2021/09/05 09:46:31;;;;;;;1.52;1.12;;;;;;;19.29;29.13;100874.57;1662366;85;20921;-62
2021/09/05 09:49:02;;;;;;;1.12;0.80;;;;;;;19.35;28.76;100879.50;1661482;84;21017;-61
2021/09/05 09:51:28;;;;;;;2.02;0.95;;;;;;;19.39;28.93;100887.38;1723495;82;21144;-64
2021/09/05 09:53:55;;;;;;;3.60;1.40;;;;;;;19.34;28.55;100890.89;1724463;82;20955;-60
2021/09/05 09:56:21;;;;;;;1.95;1.45;;;;;;;19.28;28.28;100893.31;1724234;82;21613;-61
2021/09/05 09:58:51;;;;;;;1.35;0.95;;;;;;;19.24;29.00;100894.91;1724264;82;21518;-61
2021/09/05 10:01:22;;;;;;;1.42;1.07;;;;;;;19.34;28.63;100892.25;1721200;82;21569;-62
2021/09/05 10:03:52;;;;;;;0.78;0.78;;;;;;;19.43;27.93;100892.56;1725991;82;21171;-60
2021/09/05 10:06:21;;;;;;;1.40;1.00;;;;;;;19.40;27.47;100885.78;1727126;82;21478;-61
2021/09/05 10:08:48;;;;;;;1.40;1.05;;;;;;;19.38;28.00;100884.40;1717212;82;20987;-61
2021/09/05 10:11:16;;;;;;;1.85;1.10;;;;;;;19.37;28.02;100891.72;1725782;82;20983;-63
2021/09/05 10:13:44;;;;;;;4.03;1.67;;;;;;;19.37;28.27;100889.55;1724591;82;20959;-61
2021/09/05 10:16:12;;;;;;;2.00;1.45;;;;;;;19.42;28.52;100889.04;1724525;82;20990;-61
2021/09/05 10:18:44;;;;;;;2.95;1.98;;;;;;;19.47;28.16;100892.31;1724559;82;21518;-61
2021/09/05 10:21:13;;;;;;;4.03;1.10;;;;;;;19.48;27.65;100891.77;1724986;82;20924;-61
2021/09/05 10:23:39;;;;;;;1.52;0.80;;;;;;;19.45;26.69;100890.42;1724406;82;21040;-60
2021/09/05 10:26:10;;;;;;;1.90;1.30;;;;;;;19.42;27.01;100895.84;1715746;82;21564;-61
2021/09/05 10:28:46;;;;;;;3.40;2.22;;;;;;;19.42;26.99;100887.68;1727828;82;21078;-61
2021/09/05 10:31:13;;;;;;;1.92;1.50;;;;;;;19.45;27.37;100894.50;1725577;82;20968;-61
2021/09/05 10:33:46;;;;;;;2.75;0.82;;;;;;;19.55;27.36;100893.70;1715768;82;20940;-62
2021/09/05 10:36:12;;;;;;;1.67;1.00;;;;;;;19.65;27.22;100891.58;1725783;82;20943;-63
2021/09/05 10:38:43;;;;;;;1.67;0.70;;;;;;;19.68;26.60;100893.21;1725009;82;20996;-61
2021/09/05 10:41:24;;;;;;;0.72;0.53;;;;;;;19.71;27.01;100891.34;1726088;82;21168;-61
2021/09/05 10:43:56;;;;;;;1.00;0.70;;;;;;;19.75;25.81;100886.17;1727090;82;21680;-60
2021/09/05 10:46:42;;;;;;;5.62;1.37;;;;;;;19.68;25.30;100888.33;1720749;82;21449;-60
2021/09/05 10:49:10;;;;;;;1.55;0.72;;;;;;;19.61;26.19;100887.23;1720114;82;21493;-61
2021/09/05 10:51:40;;;;;;;3.05;1.70;;;;;;;19.56;26.72;100889.36;1713150;83;21525;-61
2021/09/05 10:54:09;;;;;;;1.27;0.90;;;;;;;19.55;26.87;100890.98;1717222;82;21117;-62
2021/09/05 10:56:44;;;;;;;1.30;0.80;;;;;;;19.53;26.12;100895.33;1714493;83;21536;-62
2021/09/05 10:59:24;;;;;;;1.52;0.70;;;;;;;19.48;26.39;100890.41;1718139;81;20984;-61
2021/09/05 11:01:52;;;;;;;2.08;1.20;;;;;;;19.43;26.15;100881.69;1712695;83;21569;-62
2021/09/05 11:04:25;;;;;;;2.17;1.15;;;;;;;19.40;26.98;100878.98;1712784;83;21114;-63
2021/09/05 11:07:06;;;;;;;1.67;1.05;;;;;;;19.48;27.79;100880.89;1720509;83;21847;-62
2021/09/05 11:09:40;;;;;;;1.95;1.40;;;;;;;19.55;26.98;100882.30;1713829;83;21541;-64
2021/09/05 11:12:24;;;;;;;1.72;1.00;;;;;;;19.57;26.43;100884.76;1716315;83;21015;-62
2021/09/05 11:14:54;;;;;;;1.87;1.17;;;;;;;19.56;26.58;100881.20;1710451;83;20913;-61
2021/09/05 11:17:28;;;;;;;2.58;1.30;;;;;;;19.63;26.71;100877.45;1676081;85;20908;-62
2021/09/05 11:20:09;;;;;;;5.25;1.10;;;;;;;19.68;26.99;100876.89;1677862;84;21163;-62
2021/09/05 11:22:41;;;;;;;1.70;1.00;;;;;;;19.73;25.82;100879.64;1651498;84;20940;-61
2021/09/05 11:25:26;;;;;;;2.45;1.10;;;;;;;19.61;25.41;100874.99;1679858;84;21011;-61
2021/09/05 11:28:04;;;;;;;1.55;0.90;;;;;;;19.47;26.46;100867.84;1677251;84;21551;-61
2021/09/05 11:30:39;;;;;;;2.77;1.52;;;;;;;19.37;26.76;100867.80;1678049;84;21532;-62
2021/09/05 11:33:12;;;;;;;3.98;1.40;;;;;;;19.20;26.88;100870.73;1676127;84;22001;-61
2021/09/05 11:35:46;;;;;;;5.17;1.47;;;;;;;19.08;26.80;100871.74;1676153;84;20959;-61
2021/09/05 11:38:18;;;;;;;1.15;0.82;;;;;;;18.97;26.68;100867.31;1677745;84;21019;-61
2021/09/05 11:40:53;;;;;;;1.17;0.90;;;;;;;18.87;26.47;100866.73;1677422;84;20932;-61